LFLN 181630Z AUTO 29006KT 9999 //////TCU 21/16 Q1014 TEMPO 4000 SHRA FEW030CB BKN040

ElémentsDécodage
LFLN Station météo située sur l'aérodrome de SAINT-YAN
181630Z émis le 18 du mois à 16h30 UTC
AUTO Bulletin édité par un automate
29006KT vent du 290°, 06 noeuds
9999 visibilité horizontale supérieure à 10 Km
//////TCU nébulosité (type et hauteur) non disponible
 présence de cumulus congestus
21/16 température 21°C, point de rosée 16°C
 soit une humidité relative de 73%
Q1014 la pression au niveau de la mer (QNH) est de 1014 hPa
TEMPO fluctuation temporaire prévue
4000 visibilité horizontale de 4000 mètres
SHRA averse(s) de pluie
FEW030CB nuages rares (1/8 à 2/8) à 3000 pieds
 présence de cumulonimbus
BKN040 nuages morcelés (5/8 à 7/8) à 4000 pieds